VDPP/PNH METAR and TAF weather

Enter ICAO airport designator
Station Type Date Time Source
VDPP METAR 2019/12/07 17:30 UTC NOAA

VDPP 071730Z 02006KT 9000 FEW017 22/15 Q1015


Station Type Date Time Source
VDPP Decoded METAR 2019/12/07 17:30 UTC NOAA

Phnom-Penh / Pochentong, Cambodia (VDPP) 11-33N 104-51E 10M
Dec 07, 2019 - 12:30 PM EST / 2019.12.07 1730 UTC
Wind: from the NNE (020 degrees) at 7 MPH (6 KT):0
Visibility: 5 mile(s):0
Sky conditions: mostly clear
Temperature: 71 F (22 C)
Dew Point: 59 F (15 C)
Relative Humidity: 64%
Pressure (altimeter): 29.97 in. Hg (1015 hPa)
ob: VDPP 071730Z 02006KT 9000 FEW017 22/15 Q1015
cycle: 17

Station Type Date Time Source
VDPP TAF 2019/12/07 18:00 UTC NOAA

TAF VDPP 071700Z 0718/0812 03010KT 9999 SCT017

Example: see airport list